createdAt,value
2019-03-22T00:00:19.268Z,13.20
2019-03-22T00:01:19.481Z,14.60
2019-03-22T00:02:19.596Z,16.40
2019-03-22T00:03:19.903Z,14.50
2019-03-22T00:04:20.283Z,16.30
2019-03-22T00:05:20.532Z,15.00
2019-03-22T00:06:20.800Z,14.50
2019-03-22T00:07:21.099Z,12.90
2019-03-22T00:08:21.382Z,15.40
2019-03-22T00:09:21.675Z,14.40
2019-03-22T00:10:21.894Z,16.40
2019-03-22T00:11:22.227Z,15.20
2019-03-22T00:12:22.388Z,13.60
2019-03-22T00:13:22.578Z,15.80
2019-03-22T00:14:22.792Z,17.20
2019-03-22T00:15:23.023Z,17.00
2019-03-22T00:16:23.331Z,13.70
2019-03-22T00:17:23.557Z,20.70
2019-03-22T00:18:23.692Z,14.60
2019-03-22T00:19:23.979Z,13.50
2019-03-22T00:20:24.255Z,14.10
2019-03-22T00:21:24.393Z,13.90
2019-03-22T00:22:24.683Z,18.50
2019-03-22T00:23:24.850Z,13.50
2019-03-22T00:24:25.170Z,14.60
2019-03-22T00:25:25.341Z,15.20
2019-03-22T00:27:25.538Z,18.10
2019-03-22T00:28:25.746Z,16.90
2019-03-22T00:29:25.880Z,15.50
2019-03-22T00:30:26.135Z,14.10
2019-03-22T00:31:26.392Z,14.00
2019-03-22T00:32:26.667Z,18.00
2019-03-22T00:33:26.906Z,18.20
2019-03-22T00:34:27.210Z,16.30
2019-03-22T00:35:27.627Z,16.70
2019-03-22T00:36:27.857Z,17.20
2019-03-22T00:37:28.105Z,14.90
2019-03-22T00:38:28.507Z,13.70
2019-03-22T00:39:29.047Z,16.80
2019-03-22T00:40:28.762Z,15.10
2019-03-22T00:41:29.022Z,14.90
2019-03-22T00:42:29.163Z,15.30
2019-03-22T00:43:29.367Z,13.50
2019-03-22T00:44:29.347Z,15.10
2019-03-22T00:45:30.111Z,12.70
2019-03-22T00:46:30.803Z,12.70
2019-03-22T00:47:30.488Z,12.10
2019-03-22T00:48:30.647Z,15.20
2019-03-22T00:49:33.486Z,13.50
2019-03-22T00:50:31.395Z,14.60
2019-03-22T00:51:31.538Z,14.10
2019-03-22T00:52:31.813Z,18.80
2019-03-22T00:53:32.189Z,13.50
2019-03-22T00:54:32.434Z,14.00
2019-03-22T00:55:32.645Z,15.30
2019-03-22T00:56:32.821Z,14.90
2019-03-22T00:57:33.059Z,14.20
2019-03-22T00:58:33.269Z,12.50
2019-03-22T00:59:33.440Z,12.10
2019-03-22T01:00:33.654Z,14.60
2019-03-22T01:01:33.627Z,13.30
2019-03-22T01:02:34.263Z,14.90
2019-03-22T01:03:34.395Z,17.40
2019-03-22T01:04:34.441Z,11.60
2019-03-22T01:05:34.348Z,12.50
2019-03-22T01:06:35.062Z,17.60
2019-03-22T01:07:35.205Z,12.30
2019-03-22T01:08:35.391Z,12.70
2019-03-22T01:09:35.561Z,14.50
2019-03-22T01:10:35.806Z,13.70
2019-03-22T01:11:36.030Z,15.00
2019-03-22T01:12:36.169Z,13.10
2019-03-22T01:13:36.732Z,14.20
2019-03-22T01:14:36.390Z,13.50
2019-03-22T01:15:36.452Z,13.50
2019-03-22T01:16:36.630Z,14.70
2019-03-22T01:17:36.711Z,12.30
2019-03-22T01:18:36.987Z,13.60
2019-03-22T01:19:37.290Z,13.60
2019-03-22T01:20:37.439Z,13.20
2019-03-22T01:21:37.701Z,12.50
2019-03-22T01:22:37.893Z,13.60
2019-03-22T01:23:38.076Z,14.10
2019-03-22T01:24:38.309Z,12.40
2019-03-22T01:25:38.484Z,15.50
2019-03-22T01:26:38.596Z,16.50
2019-03-22T01:27:40.694Z,15.40
2019-03-22T01:28:39.098Z,13.80
2019-03-22T01:29:39.206Z,11.80
2019-03-22T01:30:39.449Z,13.50
2019-03-22T01:31:39.713Z,13.90
2019-03-22T01:32:39.858Z,11.60
2019-03-22T01:33:40.019Z,14.00
2019-03-22T01:34:40.166Z,12.10
2019-03-22T01:35:40.441Z,12.20
2019-03-22T01:36:40.603Z,12.50
2019-03-22T01:37:40.871Z,14.10
2019-03-22T01:38:41.082Z,15.90
2019-03-22T01:39:41.334Z,17.40
2019-03-22T01:40:41.522Z,13.70
2019-03-22T01:41:41.800Z,12.50
2019-03-22T01:42:02.322Z,12.90
2019-03-22T01:43:03.301Z,13.20
2019-03-22T01:44:03.919Z,15.20
2019-03-22T01:45:04.026Z,12.40
2019-03-22T01:46:04.242Z,12.50
2019-03-22T01:47:04.767Z,12.80
2019-03-22T01:48:04.556Z,12.30
2019-03-22T01:49:04.838Z,13.10
2019-03-22T01:50:05.186Z,14.70
2019-03-22T01:51:05.480Z,13.60
2019-03-22T01:52:05.724Z,14.10
2019-03-22T01:53:06.361Z,12.90
2019-03-22T01:54:06.446Z,12.20
2019-03-22T01:55:06.243Z,15.00
2019-03-22T01:56:06.557Z,13.20
2019-03-22T01:57:06.574Z,12.10
2019-03-22T01:58:06.981Z,12.90
2019-03-22T01:59:07.395Z,12.70
2019-03-22T02:00:07.621Z,13.50
2019-03-22T02:02:08.356Z,15.30
2019-03-22T02:03:08.140Z,12.90
2019-03-22T02:04:08.561Z,13.80
2019-03-22T02:05:09.073Z,12.70
2019-03-22T02:06:08.984Z,13.10
2019-03-22T02:07:09.328Z,13.50
2019-03-22T02:08:09.822Z,10.80
2019-03-22T02:09:10.024Z,12.50
2019-03-22T02:10:10.237Z,14.40
2019-03-22T02:11:10.653Z,13.10
2019-03-22T02:12:11.274Z,14.90
2019-03-22T02:13:11.398Z,14.40
2019-03-22T02:14:11.183Z,13.00
2019-03-22T02:15:11.389Z,13.40
2019-03-22T02:16:12.013Z,11.90
2019-03-22T02:17:12.119Z,11.00
2019-03-22T02:18:12.344Z,12.20
2019-03-22T02:19:12.241Z,11.30
2019-03-22T02:20:12.447Z,12.10
2019-03-22T02:21:12.862Z,12.00
2019-03-22T02:22:13.133Z,11.00
2019-03-22T02:23:13.297Z,11.60
2019-03-22T02:24:13.704Z,13.60
2019-03-22T02:25:14.223Z,11.20
2019-03-22T02:26:14.251Z,11.50
2019-03-22T02:27:14.146Z,11.70
2019-03-22T02:28:14.665Z,11.30
2019-03-22T02:29:14.589Z,11.80
2019-03-22T02:30:15.208Z,11.10
2019-03-22T02:31:14.982Z,12.90
2019-03-22T02:32:15.425Z,11.20
2019-03-22T02:33:15.819Z,15.80
2019-03-22T02:34:16.434Z,11.10
2019-03-22T02:35:28.385Z,12.30
2019-03-22T02:36:16.241Z,14.70
2019-03-22T02:37:16.636Z,12.90
2019-03-22T02:38:17.085Z,12.60
2019-03-22T02:39:17.618Z,13.00
2019-03-22T02:40:17.902Z,12.00
2019-03-22T02:41:18.056Z,10.80
2019-03-22T02:42:18.634Z,11.80
2019-03-22T02:43:18.444Z,10.90
2019-03-22T02:44:18.858Z,12.30
2019-03-22T02:45:19.160Z,14.20
2019-03-22T02:46:19.687Z,11.60
2019-03-22T02:47:19.488Z,11.90
2019-03-22T02:48:19.778Z,13.50
2019-03-22T02:49:20.112Z,13.10
2019-03-22T02:50:20.603Z,11.80
2019-03-22T02:51:20.537Z,12.90
2019-03-22T02:52:20.852Z,13.80
2019-03-22T02:53:21.204Z,14.80
2019-03-22T02:54:21.795Z,12.60
2019-03-22T02:55:21.692Z,12.20
2019-03-22T02:56:22.110Z,13.60
2019-03-22T02:57:22.345Z,15.00
2019-03-22T02:58:22.632Z,13.60
2019-03-22T02:59:23.023Z,13.70
2019-03-22T03:00:23.362Z,13.70
2019-03-22T03:01:23.883Z,12.30
2019-03-22T03:02:23.694Z,14.20
2019-03-22T03:03:24.215Z,12.40
2019-03-22T03:04:23.912Z,14.70
2019-03-22T03:05:24.526Z,13.70
2019-03-22T03:06:24.427Z,11.90
2019-03-22T03:07:24.739Z,12.60
2019-03-22T03:09:25.387Z,10.90
2019-03-22T03:10:25.483Z,13.10
2019-03-22T03:11:25.394Z,12.60
2019-03-22T03:12:26.001Z,12.70
2019-03-22T03:13:26.010Z,13.60
2019-03-22T03:14:26.022Z,13.30
2019-03-22T03:15:25.715Z,11.50
2019-03-22T03:16:26.335Z,12.00
2019-03-22T03:17:26.238Z,11.80
2019-03-22T03:18:26.860Z,12.40
2019-03-22T03:19:27.291Z,12.50
2019-03-22T03:20:27.140Z,14.70
2019-03-22T03:21:27.697Z,17.40
2019-03-22T03:22:27.704Z,11.80
2019-03-22T03:23:27.723Z,11.30
2019-03-22T03:24:27.513Z,11.70
2019-03-22T03:25:27.837Z,12.90
2019-03-22T03:26:28.250Z,13.60
2019-03-22T03:27:28.780Z,12.00
2019-03-22T03:28:36.492Z,13.80
2019-03-22T03:29:28.772Z,13.50
2019-03-22T03:30:29.313Z,13.30
2019-03-22T03:31:29.312Z,13.20
2019-03-22T03:32:29.729Z,13.50
2019-03-22T03:33:30.355Z,14.00
2019-03-22T03:34:30.351Z,18.20
2019-03-22T03:35:30.768Z,20.90
2019-03-22T03:36:34.662Z,20.90
2019-03-22T03:37:30.877Z,20.50
2019-03-22T03:38:31.200Z,31.60
2019-03-22T03:39:31.507Z,30.20
2019-03-22T03:40:31.929Z,39.60
2019-03-22T03:41:32.536Z,40.20
2019-03-22T03:42:32.454Z,38.30
2019-03-22T03:43:33.004Z,38.20
2019-03-22T03:44:32.386Z,31.50
2019-03-22T03:45:33.296Z,31.70
2019-03-22T03:46:33.706Z,25.70
2019-03-22T03:47:34.007Z,42.70
2019-03-22T03:48:34.323Z,40.90
2019-03-22T03:49:34.433Z,46.70
2019-03-22T03:50:35.053Z,61.20
2019-03-22T03:51:34.765Z,56.50
2019-03-22T03:52:35.276Z,54.70
2019-03-22T03:53:35.072Z,45.30
2019-03-22T03:54:35.303Z,46.80
2019-03-22T03:55:35.702Z,41.00
2019-03-22T03:56:35.752Z,35.10
2019-03-22T03:57:36.124Z,30.20
2019-03-22T03:58:51.245Z,28.70
2019-03-22T03:59:36.371Z,23.80
2019-03-22T04:00:36.452Z,21.90
2019-03-22T04:01:36.977Z,20.40
2019-03-22T04:02:36.938Z,21.20
2019-03-22T04:03:37.203Z,18.70
2019-03-22T04:04:37.703Z,17.10
2019-03-22T04:05:38.026Z,16.40
2019-03-22T04:06:38.333Z,18.30
2019-03-22T04:07:38.645Z,15.90
2019-03-22T04:08:39.169Z,18.00
2019-03-22T04:09:38.941Z,15.30
2019-03-22T04:10:39.184Z,14.60
2019-03-22T04:11:39.292Z,15.90
2019-03-22T04:12:39.500Z,15.40
2019-03-22T04:13:40.024Z,15.50
2019-03-22T04:14:39.771Z,15.50
2019-03-22T04:15:40.079Z,14.40
2019-03-22T04:16:40.449Z,16.20
2019-03-22T04:17:40.870Z,14.10
2019-03-22T04:18:41.039Z,18.00
2019-03-22T04:19:41.288Z,14.30
2019-03-22T04:20:41.665Z,16.00
2019-03-22T04:21:42.117Z,14.20
2019-03-22T04:23:42.653Z,15.80
2019-03-22T04:24:42.852Z,15.10
2019-03-22T04:25:43.266Z,15.70
2019-03-22T04:26:43.485Z,14.20
2019-03-22T04:27:43.805Z,15.30
2019-03-22T04:28:44.208Z,15.50
2019-03-22T04:29:44.356Z,15.20
2019-03-22T04:30:44.936Z,15.10
2019-03-22T04:31:44.743Z,16.40
2019-03-22T04:32:45.275Z,13.90
2019-03-22T04:33:45.060Z,16.50
2019-03-22T04:34:45.494Z,14.50
2019-03-22T04:35:45.792Z,14.10
2019-03-22T04:36:46.209Z,14.40
2019-03-22T04:37:46.737Z,15.10
2019-03-22T04:38:46.221Z,17.10
2019-03-22T04:39:47.324Z,14.60
2019-03-22T04:40:47.367Z,14.50
2019-03-22T04:41:47.265Z,14.50
2019-03-22T04:42:47.905Z,14.40
2019-03-22T04:43:47.688Z,16.70
2019-03-22T04:44:48.225Z,16.70
2019-03-22T04:45:48.112Z,14.00
2019-03-22T04:46:48.628Z,14.50
2019-03-22T04:47:48.737Z,14.70
2019-03-22T04:48:48.955Z,14.30
2019-03-22T04:49:49.345Z,14.90
2019-03-22T04:50:49.070Z,14.10
2019-03-22T04:51:49.687Z,16.70
2019-03-22T04:52:50.203Z,14.10
2019-03-22T04:53:50.627Z,14.10
2019-03-22T04:54:50.725Z,14.50
2019-03-22T04:55:51.352Z,13.80
2019-03-22T04:56:51.867Z,13.50
2019-03-22T04:57:52.389Z,14.80
2019-03-22T04:58:52.503Z,15.00
2019-03-22T04:59:52.197Z,14.30
2019-03-22T05:00:52.637Z,14.30
2019-03-22T05:01:52.719Z,15.30
2019-03-22T05:02:53.053Z,15.40
2019-03-22T05:03:53.665Z,17.40
2019-03-22T05:04:53.692Z,16.50
2019-03-22T05:05:54.179Z,17.10
2019-03-22T05:06:54.598Z,17.30
2019-03-22T05:08:54.931Z,15.80
2019-03-22T05:09:55.538Z,14.80
2019-03-22T05:10:55.646Z,15.50
2019-03-22T05:11:55.453Z,14.00
2019-03-22T05:12:55.649Z,16.60
2019-03-22T05:13:56.082Z,15.60
2019-03-22T05:14:56.701Z,16.30
2019-03-22T05:15:56.346Z,16.10
2019-03-22T05:16:56.714Z,15.00
2019-03-22T05:17:57.022Z,15.80
2019-03-22T05:18:57.554Z,16.10
2019-03-22T05:20:57.758Z,14.30
2019-03-22T05:21:57.873Z,14.90
2019-03-22T05:22:58.081Z,18.60
2019-03-22T05:23:58.510Z,14.30
2019-03-22T05:24:58.887Z,14.00
2019-03-22T05:25:59.055Z,16.00
2019-03-22T05:26:59.242Z,14.10
2019-03-22T05:27:59.382Z,14.60
2019-03-22T05:28:59.573Z,13.90
2019-03-22T05:29:59.969Z,14.70
2019-03-22T05:30:59.772Z,14.70
2019-03-22T05:32:00.391Z,14.10
2019-03-22T05:33:00.810Z,13.60
2019-03-22T05:34:01.768Z,15.50
2019-03-22T05:35:01.244Z,14.60
2019-03-22T05:36:01.443Z,15.10
2019-03-22T05:37:01.858Z,14.20
2019-03-22T05:38:01.715Z,16.20
2019-03-22T05:39:02.204Z,13.80
2019-03-22T05:40:02.507Z,14.60
2019-03-22T05:41:02.705Z,14.50
2019-03-22T05:42:02.707Z,14.20
2019-03-22T05:43:02.721Z,13.90
2019-03-22T05:44:03.042Z,14.50
2019-03-22T05:45:03.565Z,16.30
2019-03-22T05:46:03.967Z,16.60
2019-03-22T05:47:03.975Z,14.10
2019-03-22T05:48:04.401Z,16.90
2019-03-22T05:49:04.701Z,16.90
2019-03-22T05:50:05.330Z,14.50
2019-03-22T05:51:05.227Z,15.20
2019-03-22T05:52:05.741Z,14.50
2019-03-22T05:53:05.555Z,14.90
2019-03-22T05:54:05.961Z,15.40
2019-03-22T05:55:06.079Z,14.60
2019-03-22T05:56:06.371Z,13.70
2019-03-22T05:57:13.429Z,15.30
2019-03-22T05:58:07.318Z,15.50
2019-03-22T05:59:07.330Z,14.80
2019-03-22T06:00:07.345Z,13.90
2019-03-22T06:01:07.134Z,17.20
2019-03-22T06:02:07.242Z,14.50
2019-03-22T06:03:07.558Z,16.50
2019-03-22T06:04:08.097Z,16.00
2019-03-22T06:05:08.101Z,17.00
2019-03-22T06:06:08.297Z,14.70
2019-03-22T06:07:08.550Z,15.60
2019-03-22T06:08:08.922Z,17.60
2019-03-22T06:09:09.236Z,15.90
2019-03-22T06:10:09.564Z,14.60
2019-03-22T06:11:10.065Z,17.70
2019-03-22T06:12:10.388Z,13.90
2019-03-22T06:13:10.487Z,13.30
2019-03-22T06:14:10.991Z,14.70
2019-03-22T06:15:11.229Z,12.60
2019-03-22T06:16:11.735Z,15.80
2019-03-22T06:17:11.741Z,13.40
2019-03-22T06:18:11.442Z,14.00
2019-03-22T06:19:11.855Z,16.50
2019-03-22T06:20:12.342Z,14.40
2019-03-22T06:21:12.896Z,16.20
2019-03-22T06:22:12.698Z,16.30
2019-03-22T06:23:13.231Z,14.20
2019-03-22T06:24:13.017Z,13.40
2019-03-22T06:25:13.242Z,13.60
2019-03-22T06:26:13.961Z,13.80
2019-03-22T06:27:13.959Z,14.30
2019-03-22T06:28:13.978Z,15.50
2019-03-22T06:29:14.493Z,17.00
2019-03-22T06:30:14.389Z,13.30
2019-03-22T06:31:14.501Z,14.50
2019-03-22T06:32:14.717Z,13.20
2019-03-22T06:33:15.028Z,16.80
2019-03-22T06:34:15.493Z,14.30
2019-03-22T06:35:15.854Z,14.30
2019-03-22T06:36:16.166Z,18.90
2019-03-22T06:37:16.691Z,12.70
2019-03-22T06:38:17.109Z,13.60
2019-03-22T06:39:17.623Z,16.70
2019-03-22T06:40:17.624Z,14.50
2019-03-22T06:41:17.633Z,14.80
2019-03-22T06:42:18.153Z,16.20
2019-03-22T06:43:17.861Z,16.70
2019-03-22T06:44:18.273Z,15.80
2019-03-22T06:45:18.379Z,15.40
2019-03-22T06:46:18.792Z,13.90
2019-03-22T06:47:19.208Z,17.70
2019-03-22T06:48:19.736Z,13.60
2019-03-22T06:49:19.837Z,15.50
2019-03-22T06:50:19.638Z,14.50
2019-03-22T06:51:20.054Z,15.10
2019-03-22T06:52:20.338Z,14.30
2019-03-22T06:53:20.656Z,15.10
2019-03-22T06:54:31.031Z,20.30
2019-03-22T06:55:21.019Z,13.80
2019-03-22T06:56:21.521Z,15.40
2019-03-22T06:57:21.523Z,13.70
2019-03-22T06:58:24.102Z,14.50
2019-03-22T06:59:21.538Z,15.80
2019-03-22T07:00:21.965Z,12.20
2019-03-22T07:01:22.062Z,13.50
2019-03-22T07:02:22.281Z,12.60
2019-03-22T07:03:22.514Z,12.10
2019-03-22T07:04:22.938Z,19.10
2019-03-22T07:05:23.119Z,11.80
2019-03-22T07:06:23.432Z,15.40
2019-03-22T07:07:23.540Z,13.40
2019-03-22T07:09:23.970Z,12.80
2019-03-22T07:10:24.483Z,12.90
2019-03-22T07:11:24.908Z,13.10
2019-03-22T07:12:25.213Z,15.40
2019-03-22T07:13:25.838Z,15.90
2019-03-22T07:14:25.430Z,18.30
2019-03-22T07:15:25.851Z,14.20
2019-03-22T07:16:26.361Z,14.30
2019-03-22T07:17:26.369Z,13.30
2019-03-22T07:18:26.181Z,16.80
2019-03-22T07:19:26.790Z,15.20
2019-03-22T07:20:26.614Z,15.50
2019-03-22T07:21:27.110Z,12.70
2019-03-22T07:22:27.219Z,13.40
2019-03-22T07:23:27.132Z,13.40
2019-03-22T07:24:27.643Z,13.70
2019-03-22T07:25:27.540Z,16.50
2019-03-22T07:26:30.048Z,15.50
2019-03-22T07:27:28.387Z,14.00
2019-03-22T07:28:28.803Z,13.00
2019-03-22T07:29:29.119Z,16.30
2019-03-22T07:30:29.538Z,13.90
2019-03-22T07:31:29.839Z,14.60
2019-03-22T07:32:30.261Z,13.60
2019-03-22T07:33:30.374Z,13.60
2019-03-22T07:34:30.990Z,14.10
2019-03-22T07:35:30.891Z,13.50
2019-03-22T07:36:31.201Z,13.80
2019-03-22T07:37:31.722Z,13.70
2019-03-22T07:38:31.649Z,17.30
2019-03-22T07:39:32.242Z,14.00
2019-03-22T07:40:32.661Z,16.70
2019-03-22T07:41:32.570Z,13.90
2019-03-22T07:42:32.987Z,15.80
2019-03-22T07:43:33.612Z,13.20
2019-03-22T07:44:33.513Z,12.40
2019-03-22T07:45:33.927Z,12.70
2019-03-22T07:46:34.136Z,12.00
2019-03-22T07:47:34.656Z,11.60
2019-03-22T07:48:34.942Z,11.80
2019-03-22T07:49:34.683Z,11.90
2019-03-22T07:50:35.613Z,12.40
2019-03-22T07:51:35.810Z,13.40
2019-03-22T07:52:36.324Z,13.10
2019-03-22T07:53:36.134Z,14.80
2019-03-22T07:54:36.542Z,11.60
2019-03-22T07:55:36.755Z,14.90
2019-03-22T07:56:37.379Z,12.30
2019-03-22T07:57:37.281Z,12.60
2019-03-22T07:58:37.805Z,11.80
2019-03-22T07:59:37.909Z,12.80
2019-03-22T08:00:37.815Z,12.60
2019-03-22T08:01:37.817Z,11.50
2019-03-22T08:02:38.844Z,14.70
2019-03-22T08:03:38.812Z,11.40
2019-03-22T08:04:39.065Z,11.10
2019-03-22T08:05:50.559Z,12.20
2019-03-22T08:06:39.901Z,11.30
2019-03-22T08:07:40.045Z,11.90
2019-03-22T08:08:40.537Z,15.60
2019-03-22T08:09:40.476Z,15.10
2019-03-22T08:10:40.864Z,12.00
2019-03-22T08:11:41.015Z,14.30
2019-03-22T08:12:41.269Z,14.00
2019-03-22T08:13:41.591Z,12.40
2019-03-22T08:14:42.002Z,11.60
2019-03-22T08:15:42.562Z,15.00
2019-03-22T08:16:42.627Z,13.00
2019-03-22T08:17:42.430Z,12.00
2019-03-22T08:18:42.854Z,11.60
2019-03-22T08:19:43.162Z,11.20
2019-03-22T08:20:43.546Z,12.20
2019-03-22T08:21:43.918Z,14.30
2019-03-22T08:22:44.407Z,12.80
2019-03-22T08:23:44.155Z,10.60
2019-03-22T08:24:44.646Z,12.50
2019-03-22T08:25:44.971Z,12.10
2019-03-22T08:26:45.408Z,10.10
2019-03-22T08:27:45.155Z,11.40
2019-03-22T08:28:45.991Z,14.80
2019-03-22T08:29:46.461Z,12.00
2019-03-22T08:30:46.817Z,13.50
2019-03-22T08:31:47.436Z,13.60
2019-03-22T08:32:50.249Z,13.60
2019-03-22T08:33:47.273Z,10.30
2019-03-22T08:34:48.097Z,12.10
2019-03-22T08:35:47.775Z,10.90
2019-03-22T08:36:48.292Z,12.80
2019-03-22T08:37:52.755Z,14.30
2019-03-22T08:38:48.418Z,9.80
2019-03-22T08:39:48.206Z,11.10
2019-03-22T08:40:48.529Z,12.10
2019-03-22T08:41:48.939Z,12.00
2019-03-22T08:42:49.341Z,13.90
2019-03-22T08:43:49.671Z,9.50
2019-03-22T08:44:50.283Z,10.00
2019-03-22T08:45:49.986Z,11.30
2019-03-22T08:46:50.316Z,10.10
2019-03-22T08:47:50.839Z,10.00
2019-03-22T08:48:50.421Z,9.70
2019-03-22T08:49:50.968Z,10.10
2019-03-22T08:50:50.977Z,10.10
2019-03-22T08:51:51.504Z,10.60
2019-03-22T08:52:51.769Z,9.10
2019-03-22T08:53:55.571Z,10.60
2019-03-22T08:54:52.398Z,10.50
2019-03-22T08:55:52.854Z,10.20
2019-03-22T08:56:53.024Z,10.20
2019-03-22T08:57:53.541Z,10.50
2019-03-22T08:58:53.516Z,9.40
2019-03-22T08:59:53.250Z,10.00
2019-03-22T09:00:57.881Z,11.40
2019-03-22T09:01:53.840Z,10.20
2019-03-22T09:02:54.137Z,9.60
2019-03-22T09:03:54.396Z,9.90
2019-03-22T09:04:54.817Z,9.20
2019-03-22T09:05:55.238Z,11.10
2019-03-22T09:06:56.115Z,10.50
2019-03-22T09:07:55.763Z,9.50
2019-03-22T09:08:55.590Z,9.40
2019-03-22T09:09:55.998Z,9.70
2019-03-22T09:10:56.191Z,9.40
2019-03-22T09:11:56.605Z,9.30
2019-03-22T09:12:56.739Z,9.00
2019-03-22T09:13:57.251Z,11.50
2019-03-22T09:14:57.141Z,9.60
2019-03-22T09:15:57.662Z,9.20
2019-03-22T09:16:57.708Z,9.50
2019-03-22T09:17:57.820Z,9.50
2019-03-22T09:18:57.701Z,9.40
2019-03-22T09:19:58.298Z,10.80
2019-03-22T09:20:58.187Z,11.10
2019-03-22T09:21:59.755Z,9.70
2019-03-22T09:22:58.520Z,12.70
2019-03-22T09:23:58.987Z,11.40
2019-03-22T09:24:59.382Z,8.90
2019-03-22T09:25:59.668Z,9.90
2019-03-22T09:27:00.303Z,9.60
2019-03-22T09:28:00.400Z,9.60
2019-03-22T09:29:00.724Z,9.10
2019-03-22T09:30:00.618Z,9.40
2019-03-22T09:31:10.130Z,9.80
2019-03-22T09:32:00.972Z,12.40
2019-03-22T09:34:01.519Z,9.20
2019-03-22T09:35:02.038Z,9.20
2019-03-22T09:36:02.261Z,11.50
2019-03-22T09:37:02.510Z,11.70
2019-03-22T09:38:12.345Z,9.00
2019-03-22T09:39:02.942Z,8.90
2019-03-22T09:40:03.102Z,9.40
2019-03-22T09:41:03.325Z,10.00
2019-03-22T09:42:03.320Z,11.00
2019-03-22T09:43:03.496Z,10.20
2019-03-22T09:44:03.628Z,9.40
2019-03-22T09:45:03.883Z,10.10
2019-03-22T09:46:04.142Z,11.10
2019-03-22T09:47:04.569Z,9.70
2019-03-22T09:48:06.086Z,12.10
2019-03-22T09:49:05.652Z,9.80
2019-03-22T09:50:05.589Z,9.70
2019-03-22T09:51:05.510Z,9.70
2019-03-22T09:52:05.937Z,10.20
2019-03-22T09:53:06.155Z,11.10
2019-03-22T09:54:06.617Z,12.90
2019-03-22T09:55:13.302Z,10.10
2019-03-22T09:56:07.493Z,9.30
2019-03-22T09:57:07.069Z,11.70
2019-03-22T09:58:07.235Z,10.60
2019-03-22T09:59:07.831Z,10.90
2019-03-22T10:00:07.614Z,11.00
2019-03-22T10:01:08.053Z,12.00
2019-03-22T10:02:08.045Z,9.20
2019-03-22T10:03:08.037Z,12.10
2019-03-22T10:04:08.047Z,9.30
2019-03-22T10:05:08.058Z,9.90
2019-03-22T10:06:08.277Z,12.70
2019-03-22T10:07:08.491Z,12.90
2019-03-22T10:08:08.592Z,10.70
2019-03-22T10:09:08.921Z,9.70
2019-03-22T10:10:09.347Z,12.00
2019-03-22T10:11:09.518Z,11.20
2019-03-22T10:12:09.690Z,9.40
2019-03-22T10:13:10.152Z,12.70
2019-03-22T10:14:10.772Z,11.30
2019-03-22T10:15:11.293Z,10.00
2019-03-22T10:16:10.926Z,11.10
2019-03-22T10:17:10.907Z,9.50
2019-03-22T10:18:10.823Z,10.30
2019-03-22T10:19:11.369Z,9.30
2019-03-22T10:20:11.306Z,10.90
2019-03-22T10:21:21.818Z,10.40
2019-03-22T10:22:12.617Z,11.00
2019-03-22T10:23:12.710Z,10.30
2019-03-22T10:24:13.089Z,8.50
2019-03-22T10:25:13.647Z,10.40
2019-03-22T10:26:13.650Z,9.50
2019-03-22T10:27:13.682Z,10.90
2019-03-22T10:28:13.648Z,8.50
2019-03-22T10:29:13.331Z,12.40
2019-03-22T10:30:13.805Z,11.20
2019-03-22T10:31:13.916Z,11.10
2019-03-22T10:32:14.096Z,9.60
2019-03-22T10:33:22.549Z,12.50
2019-03-22T10:34:14.656Z,10.60
2019-03-22T10:35:25.547Z,10.90
2019-03-22T10:36:15.155Z,9.20
2019-03-22T10:37:15.779Z,9.40
2019-03-22T10:38:16.829Z,11.90
2019-03-22T10:39:15.807Z,10.30
2019-03-22T10:40:15.493Z,10.60
2019-03-22T10:41:16.006Z,10.80
2019-03-22T10:42:16.184Z,9.20
2019-03-22T10:43:16.473Z,11.40
2019-03-22T10:44:17.110Z,9.50
2019-03-22T10:45:17.122Z,9.70
2019-03-22T10:46:17.126Z,10.70
2019-03-22T10:47:18.144Z,9.80
2019-03-22T10:48:17.355Z,10.10
2019-03-22T10:49:17.336Z,9.10
2019-03-22T10:50:17.913Z,11.40
2019-03-22T10:51:21.333Z,9.10
2019-03-22T10:52:17.889Z,8.70
2019-03-22T10:53:18.435Z,10.30
2019-03-22T10:54:18.333Z,12.10
2019-03-22T10:55:29.866Z,11.20
2019-03-22T10:56:19.241Z,10.10
2019-03-22T10:57:19.117Z,10.10
2019-03-22T10:58:21.389Z,10.70
2019-03-22T10:59:19.774Z,9.80
2019-03-22T11:00:19.621Z,12.60
2019-03-22T11:01:20.093Z,11.60
2019-03-22T11:02:20.025Z,9.20
2019-03-22T11:03:20.359Z,9.80
2019-03-22T11:04:20.815Z,9.70
2019-03-22T11:05:21.147Z,10.70
2019-03-22T11:06:26.164Z,11.40
2019-03-22T11:07:21.411Z,10.60
2019-03-22T11:08:21.898Z,10.20
2019-03-22T11:09:21.887Z,10.90
2019-03-22T11:10:22.201Z,10.10
2019-03-22T11:11:22.305Z,10.50
2019-03-22T11:12:22.937Z,12.20
2019-03-22T11:13:22.323Z,10.10
2019-03-22T11:14:22.950Z,11.60
2019-03-22T11:15:23.989Z,10.10
2019-03-22T11:16:23.570Z,12.00
2019-03-22T11:17:23.790Z,12.30
2019-03-22T11:18:23.990Z,10.50
2019-03-22T11:19:24.309Z,9.60
2019-03-22T11:20:24.718Z,11.60
2019-03-22T11:21:24.975Z,10.60
2019-03-22T11:22:25.564Z,11.00
2019-03-22T11:23:25.559Z,11.30
2019-03-22T11:24:26.088Z,12.10
2019-03-22T11:25:26.160Z,11.20
2019-03-22T11:26:26.196Z,9.90
2019-03-22T11:27:25.698Z,10.40
2019-03-22T11:28:25.905Z,9.70
2019-03-22T11:29:26.417Z,10.40
2019-03-22T11:30:26.427Z,11.20
2019-03-22T11:31:28.662Z,11.30
2019-03-22T11:32:26.865Z,11.90
2019-03-22T11:33:26.716Z,12.80
2019-03-22T11:34:26.966Z,10.30
2019-03-22T11:35:27.277Z,11.00
2019-03-22T11:36:27.488Z,10.90
2019-03-22T11:37:28.029Z,10.90
2019-03-22T11:38:27.911Z,11.10
2019-03-22T11:39:28.429Z,12.10
2019-03-22T11:40:28.446Z,10.00
2019-03-22T11:41:28.035Z,10.40
2019-03-22T11:42:28.549Z,11.30
2019-03-22T11:43:28.566Z,9.80
2019-03-22T11:44:28.671Z,10.00
2019-03-22T11:45:28.776Z,11.40
2019-03-22T11:46:31.045Z,8.70
2019-03-22T11:47:29.097Z,9.70
2019-03-22T11:48:29.419Z,12.00
2019-03-22T11:49:29.935Z,12.20
2019-03-22T11:50:29.936Z,9.60
2019-03-22T11:51:29.840Z,10.60
2019-03-22T11:52:30.152Z,9.40
2019-03-22T11:53:30.690Z,10.20
2019-03-22T11:54:30.778Z,9.30
2019-03-22T11:55:30.622Z,10.70
2019-03-22T11:56:31.205Z,9.80
2019-03-22T11:57:31.311Z,10.60
2019-03-22T11:58:31.223Z,10.60
2019-03-22T11:59:31.734Z,11.10
2019-03-22T12:00:31.945Z,11.40
2019-03-22T12:01:31.746Z,9.70
2019-03-22T12:02:32.268Z,10.70
2019-03-22T12:03:32.693Z,10.00
2019-03-22T12:04:33.198Z,11.70
2019-03-22T12:05:40.335Z,9.70
2019-03-22T12:06:33.214Z,11.90
2019-03-22T12:07:33.728Z,9.80
2019-03-22T12:08:33.850Z,10.60
2019-03-22T12:09:33.947Z,11.00
2019-03-22T12:10:33.956Z,11.10
2019-03-22T12:11:34.374Z,10.90
2019-03-22T12:12:34.589Z,10.40
2019-03-22T12:13:35.008Z,12.70
2019-03-22T12:14:35.314Z,11.20
2019-03-22T12:15:35.525Z,12.70
2019-03-22T12:16:35.941Z,11.80
2019-03-22T12:17:36.254Z,9.80
2019-03-22T12:18:36.781Z,10.00
2019-03-22T12:19:36.678Z,11.10
2019-03-22T12:20:36.888Z,9.10
2019-03-22T12:21:37.407Z,11.00
2019-03-22T12:22:38.511Z,9.60
2019-03-22T12:23:37.335Z,9.20
2019-03-22T12:24:37.836Z,10.20
2019-03-22T12:25:38.354Z,9.30
2019-03-22T12:26:38.054Z,9.90
2019-03-22T12:27:38.266Z,9.30
2019-03-22T12:28:38.683Z,10.30
2019-03-22T12:29:38.903Z,9.80
2019-03-22T12:30:39.208Z,9.50
2019-03-22T12:32:39.421Z,11.50
2019-03-22T12:33:39.740Z,10.60
2019-03-22T12:34:40.164Z,9.90
2019-03-22T12:35:42.458Z,10.60
2019-03-22T12:36:40.586Z,9.40
2019-03-22T12:37:40.889Z,10.10
2019-03-22T12:38:41.101Z,10.30
2019-03-22T12:39:42.002Z,10.90
2019-03-22T12:40:42.034Z,9.20
2019-03-22T12:41:41.942Z,9.90
2019-03-22T12:42:42.363Z,11.20
2019-03-22T12:43:42.980Z,9.50
2019-03-22T12:44:42.993Z,10.00
2019-03-22T12:45:42.991Z,10.30
2019-03-22T12:46:43.510Z,11.80
2019-03-22T12:47:43.619Z,9.20
2019-03-22T12:48:43.731Z,9.60
2019-03-22T12:49:43.746Z,8.70
2019-03-22T12:50:43.533Z,10.20
2019-03-22T12:51:43.850Z,10.00
2019-03-22T12:52:44.365Z,10.20
2019-03-22T12:53:44.274Z,9.10
2019-03-22T12:54:44.706Z,9.20
2019-03-22T12:55:45.103Z,9.30
2019-03-22T12:56:45.317Z,11.20
2019-03-22T12:58:45.738Z,9.50
2019-03-22T12:59:46.260Z,10.70
2019-03-22T13:00:46.682Z,11.20
2019-03-22T13:01:46.911Z,10.00
2019-03-22T13:02:47.188Z,12.00
2019-03-22T13:03:47.304Z,10.90
2019-03-22T13:04:47.678Z,10.00
2019-03-22T13:05:47.902Z,9.60
2019-03-22T13:06:48.316Z,9.60
2019-03-22T13:07:48.666Z,9.50